WZZ116 LBSF-GCLP
Flight info
| Callsign | WZZ116 |
|---|---|
| Flight time | 5h 15m |
| Altitude | 20000 |
| Route | NAPET T214 LETNI P92 BUREK/N0448F340 DCT GOSTI DCT ENFAR DCT LEBGA DCT VAKSU DCT AIOSA/N0446F330 DCT OKIDO/N0447F350 DCT GOKMI DCT SUPUX DCT KUPIM DCT SUXER DCT RIPAL DCT MORSS DCT MHN DCT CDP DCT LULAK DCT EDULI DCT OKITI M603 ALT N851 VJF L82 RUNAX UL82 IBALU UN857 TERTO |
| Aircraft | A321/M-SDE3FGHIRWY/LB1 |
Departure
| Time | 2026-04-27 10:09 |
|---|---|
| Airport | Sofia Airport (LBSF) |
Arrival
| Time | 2026-04-27 15:24 |
|---|---|
| Airport | Gran Canaria Airport (GCLP) |
| Time | Latitude | Longitude | Altitude | Speed | Heading |
|---|---|---|---|---|---|
| 2026-04-27 09:43 | 42.69107 | 23.40225 | 1753 ft | 0 kts | 196° |
| 2026-04-27 09:59 | 42.69123 | 23.40232 | 1744 ft | 3 kts | 202° |
| 2026-04-27 09:59 | 42.69140 | 23.40242 | 1749 ft | 3 kts | 202° |
| 2026-04-27 09:59 | 42.69157 | 23.40255 | 1742 ft | 3 kts | 229° |
| 2026-04-27 10:00 | 42.69167 | 23.40277 | 1749 ft | 3 kts | 259° |
| 2026-04-27 10:00 | 42.69168 | 23.40303 | 1747 ft | 2 kts | 288° |
| 2026-04-27 10:00 | 42.69167 | 23.40305 | 1747 ft | 0 kts | 290° |
| 2026-04-27 10:02 | 42.69169 | 23.40298 | 1747 ft | 2 kts | 290° |
| 2026-04-27 10:02 | 42.69177 | 23.40256 | 1750 ft | 6 kts | 284° |
| 2026-04-27 10:03 | 42.69189 | 23.40195 | 1753 ft | 7 kts | 287° |
| 2026-04-27 10:03 | 42.69206 | 23.40126 | 1750 ft | 8 kts | 290° |
| 2026-04-27 10:03 | 42.69227 | 23.40053 | 1747 ft | 9 kts | 294° |
| 2026-04-27 10:03 | 42.69252 | 23.39974 | 1745 ft | 9 kts | 290° |
| 2026-04-27 10:04 | 42.69272 | 23.39887 | 1752 ft | 10 kts | 285° |
| 2026-04-27 10:04 | 42.69291 | 23.39793 | 1752 ft | 11 kts | 285° |
| 2026-04-27 10:04 | 42.69311 | 23.39694 | 1740 ft | 11 kts | 285° |
| 2026-04-27 10:04 | 42.69339 | 23.39594 | 1745 ft | 11 kts | 310° |
| 2026-04-27 10:05 | 42.69412 | 23.39570 | 1752 ft | 11 kts | 6° |
| 2026-04-27 10:05 | 42.69493 | 23.39579 | 1752 ft | 12 kts | 4° |
| 2026-04-27 10:05 | 42.69570 | 23.39603 | 1746 ft | 11 kts | 44° |
| 2026-04-27 10:05 | 42.69584 | 23.39658 | 1744 ft | 1 kts | 77° |
| 2026-04-27 10:06 | 42.69588 | 23.39661 | 1745 ft | 1 kts | 37° |
| 2026-04-27 10:06 | 42.69593 | 23.39656 | 1745 ft | 1 kts | 339° |
| 2026-04-27 10:06 | 42.69613 | 23.39636 | 1744 ft | 6 kts | 326° |
| 2026-04-27 10:06 | 42.69653 | 23.39604 | 1745 ft | 7 kts | 336° |
| 2026-04-27 10:07 | 42.69704 | 23.39596 | 1753 ft | 8 kts | 3° |
| 2026-04-27 10:07 | 42.69755 | 23.39621 | 1746 ft | 8 kts | 41° |
| 2026-04-27 10:07 | 42.69770 | 23.39691 | 1746 ft | 8 kts | 94° |
| 2026-04-27 10:07 | 42.69770 | 23.39694 | 1746 ft | 0 kts | 94° |
| 2026-04-27 10:08 | 42.69768 | 23.39738 | 1745 ft | 22 kts | 94° |
| 2026-04-27 10:08 | 42.69736 | 23.40256 | 1745 ft | 87 kts | 94° |
| 2026-04-27 10:08 | 42.69674 | 23.41342 | 1751 ft | 141 kts | 94° |
| 2026-04-27 10:08 | 42.69581 | 23.42873 | 1836 ft | 177 kts | 95° |
| 2026-04-27 10:09 | 42.69464 | 23.44564 | 2365 ft | 183 kts | 96° |
| 2026-04-27 10:09 | 42.69330 | 23.46321 | 2973 ft | 192 kts | 96° |
| 2026-04-27 10:09 | 42.69196 | 23.48192 | 3575 ft | 202 kts | 96° |
| 2026-04-27 10:09 | 42.69069 | 23.50181 | 3734 ft | 223 kts | 96° |
| 2026-04-27 10:10 | 42.68934 | 23.52362 | 4118 ft | 236 kts | 95° |
| 2026-04-27 10:10 | 42.68759 | 23.54605 | 4681 ft | 244 kts | 103° |
| 2026-04-27 10:10 | 42.67903 | 23.56641 | 4986 ft | 260 kts | 141° |
| 2026-04-27 10:10 | 42.66242 | 23.57612 | 5518 ft | 267 kts | 176° |
| 2026-04-27 10:11 | 42.64384 | 23.57367 | 6119 ft | 271 kts | 195° |
| 2026-04-27 10:11 | 42.62562 | 23.56644 | 6797 ft | 274 kts | 200° |
| 2026-04-27 10:11 | 42.60740 | 23.55845 | 7480 ft | 276 kts | 200° |
| 2026-04-27 10:11 | 42.58885 | 23.55112 | 8200 ft | 278 kts | 198° |
| 2026-04-27 10:12 | 42.56997 | 23.54474 | 8886 ft | 282 kts | 195° |
| 2026-04-27 10:12 | 42.55067 | 23.53906 | 9625 ft | 284 kts | 197° |
| 2026-04-27 10:12 | 42.53223 | 23.52973 | 9926 ft | 283 kts | 212° |
| 2026-04-27 10:12 | 42.51684 | 23.51410 | 10096 ft | 282 kts | 229° |
| 2026-04-27 10:13 | 42.50517 | 23.49305 | 10723 ft | 281 kts | 241° |
| 2026-04-27 10:13 | 42.49474 | 23.46948 | 10878 ft | 302 kts | 241° |
| 2026-04-27 10:13 | 42.48360 | 23.44428 | 11010 ft | 322 kts | 241° |
| 2026-04-27 10:13 | 42.47176 | 23.41752 | 11243 ft | 338 kts | 240° |
| 2026-04-27 10:14 | 42.45958 | 23.39003 | 11716 ft | 343 kts | 240° |
| 2026-04-27 10:14 | 42.44724 | 23.36217 | 12292 ft | 347 kts | 240° |
| 2026-04-27 10:14 | 42.43477 | 23.33403 | 12878 ft | 350 kts | 240° |
| 2026-04-27 10:14 | 42.42219 | 23.30562 | 13462 ft | 353 kts | 241° |
| 2026-04-27 10:15 | 42.40948 | 23.27694 | 14034 ft | 357 kts | 241° |
| 2026-04-27 10:15 | 42.39664 | 23.24802 | 14533 ft | 360 kts | 241° |
| 2026-04-27 10:15 | 42.38364 | 23.21883 | 15043 ft | 364 kts | 241° |
| 2026-04-27 10:15 | 42.37051 | 23.18938 | 15543 ft | 367 kts | 241° |
| 2026-04-27 10:16 | 42.35727 | 23.15971 | 16044 ft | 371 kts | 240° |
| 2026-04-27 10:16 | 42.34387 | 23.12971 | 16536 ft | 374 kts | 240° |
| 2026-04-27 10:16 | 42.33037 | 23.09946 | 17025 ft | 378 kts | 240° |
| 2026-04-27 10:16 | 42.31675 | 23.06894 | 17506 ft | 381 kts | 240° |
| 2026-04-27 10:17 | 42.30296 | 23.03812 | 17979 ft | 385 kts | 240° |
| 2026-04-27 10:17 | 42.28901 | 23.00706 | 18452 ft | 388 kts | 240° |
| 2026-04-27 10:17 | 42.27475 | 22.97597 | 18861 ft | 392 kts | 239° |
| 2026-04-27 10:17 | 42.26003 | 22.94480 | 19294 ft | 394 kts | 238° |
| 2026-04-27 10:18 | 42.24507 | 22.91368 | 19741 ft | 397 kts | 238° |
| 2026-04-27 10:18 | 42.23013 | 22.88278 | 20196 ft | 399 kts | 238° |
| 2026-04-27 10:18 | 42.21495 | 22.85136 | 20662 ft | 401 kts | 238° |
| 2026-04-27 10:18 | 42.19971 | 22.81974 | 21119 ft | 403 kts | 238° |
| 2026-04-27 10:19 | 42.18439 | 22.78791 | 21556 ft | 406 kts | 238° |
| 2026-04-27 10:19 | 42.16901 | 22.75591 | 21994 ft | 408 kts | 238° |
| 2026-04-27 10:19 | 42.15358 | 22.72377 | 22411 ft | 410 kts | 238° |
| 2026-04-27 10:19 | 42.13804 | 22.69146 | 22825 ft | 411 kts | 238° |
| 2026-04-27 10:20 | 42.12241 | 22.65901 | 23220 ft | 414 kts | 238° |
| 2026-04-27 10:20 | 42.10716 | 22.62604 | 23598 ft | 415 kts | 243° |
| 2026-04-27 10:20 | 42.09555 | 22.59044 | 23945 ft | 417 kts | 252° |
| 2026-04-27 10:20 | 42.08827 | 22.55270 | 24272 ft | 417 kts | 258° |
| 2026-04-27 10:21 | 42.08215 | 22.51443 | 24615 ft | 419 kts | 258° |
| 2026-04-27 10:21 | 42.07595 | 22.47607 | 24946 ft | 420 kts | 258° |
| 2026-04-27 10:21 | 42.06971 | 22.43759 | 25285 ft | 422 kts | 258° |
| 2026-04-27 10:21 | 42.06339 | 22.39893 | 25616 ft | 424 kts | 258° |
| 2026-04-27 10:22 | 42.05703 | 22.36017 | 25938 ft | 425 kts | 258° |
| 2026-04-27 10:22 | 42.05063 | 22.32121 | 26248 ft | 427 kts | 258° |
| 2026-04-27 10:22 | 42.04423 | 22.28216 | 26562 ft | 428 kts | 258° |
| 2026-04-27 10:22 | 42.03780 | 22.24302 | 26881 ft | 429 kts | 258° |
| 2026-04-27 10:23 | 42.03131 | 22.20377 | 27192 ft | 431 kts | 258° |
| 2026-04-27 10:23 | 42.02478 | 22.16433 | 27496 ft | 432 kts | 258° |
| 2026-04-27 10:23 | 42.01821 | 22.12485 | 27807 ft | 434 kts | 258° |
| 2026-04-27 10:23 | 42.01162 | 22.08518 | 28115 ft | 435 kts | 258° |
| 2026-04-27 10:24 | 42.00501 | 22.04551 | 28405 ft | 436 kts | 258° |
| 2026-04-27 10:24 | 41.99835 | 22.00562 | 28697 ft | 437 kts | 258° |
| 2026-04-27 10:24 | 41.99166 | 21.96566 | 28991 ft | 439 kts | 258° |
| 2026-04-27 10:24 | 41.98493 | 21.92555 | 29280 ft | 440 kts | 258° |
| 2026-04-27 10:25 | 41.97819 | 21.88540 | 29566 ft | 441 kts | 258° |
| 2026-04-27 10:25 | 41.97140 | 21.84510 | 29849 ft | 442 kts | 258° |
| 2026-04-27 10:25 | 41.96462 | 21.80489 | 30254 ft | 441 kts | 258° |
| 2026-04-27 10:25 | 41.96013 | 21.77831 | 30500 ft | 439 kts | 258° |
| 2026-04-27 10:26 | 41.95338 | 21.73837 | 30857 ft | 438 kts | 258° |
| 2026-04-27 10:26 | 41.94660 | 21.69859 | 31197 ft | 436 kts | 258° |
| 2026-04-27 10:26 | 41.93981 | 21.65900 | 31530 ft | 435 kts | 258° |
| 2026-04-27 10:26 | 41.93280 | 21.61951 | 31862 ft | 434 kts | 257° |
| 2026-04-27 10:27 | 41.92473 | 21.58050 | 32189 ft | 433 kts | 255° |
| 2026-04-27 10:27 | 41.91575 | 21.54201 | 32505 ft | 432 kts | 253° |
| 2026-04-27 10:27 | 41.90628 | 21.50381 | 32831 ft | 431 kts | 253° |
| 2026-04-27 10:27 | 41.89669 | 21.46577 | 33135 ft | 430 kts | 253° |
| 2026-04-27 10:28 | 41.88722 | 21.42775 | 33438 ft | 429 kts | 253° |
| 2026-04-27 10:28 | 41.87793 | 21.38981 | 33741 ft | 427 kts | 254° |
| 2026-04-27 10:28 | 41.86884 | 21.35191 | 34031 ft | 427 kts | 254° |
| 2026-04-27 10:28 | 41.85988 | 21.31398 | 34175 ft | 426 kts | 254° |
| 2026-04-27 10:29 | 41.84203 | 21.23824 | 34200 ft | 425 kts | 254° |
| 2026-04-27 10:29 | 41.82412 | 21.16271 | 34195 ft | 425 kts | 254° |
| 2026-04-27 10:30 | 41.80995 | 21.08660 | 34200 ft | 423 kts | 266° |
| 2026-04-27 10:30 | 41.80446 | 21.00810 | 34196 ft | 423 kts | 265° |
| 2026-04-27 10:31 | 41.79866 | 20.92966 | 34186 ft | 423 kts | 265° |
| 2026-04-27 10:31 | 41.79280 | 20.85118 | 34191 ft | 423 kts | 265° |
| 2026-04-27 10:32 | 41.78690 | 20.77277 | 34191 ft | 423 kts | 265° |
| 2026-04-27 10:32 | 41.78092 | 20.69444 | 34192 ft | 422 kts | 265° |
| 2026-04-27 10:33 | 41.77486 | 20.61604 | 34187 ft | 423 kts | 265° |
| 2026-04-27 10:33 | 41.76966 | 20.53762 | 34175 ft | 422 kts | 271° |
| 2026-04-27 10:34 | 41.77546 | 20.45959 | 34168 ft | 421 kts | 277° |
| 2026-04-27 10:34 | 41.78249 | 20.38163 | 34173 ft | 421 kts | 277° |
| 2026-04-27 10:35 | 41.78932 | 20.30358 | 34172 ft | 422 kts | 277° |
| 2026-04-27 10:35 | 41.79606 | 20.22548 | 34169 ft | 422 kts | 277° |
| 2026-04-27 10:36 | 41.80283 | 20.14745 | 34163 ft | 421 kts | 277° |
| 2026-04-27 10:36 | 41.80961 | 20.06939 | 34155 ft | 422 kts | 277° |
| 2026-04-27 10:37 | 41.81630 | 19.99136 | 34146 ft | 422 kts | 277° |
| 2026-04-27 10:37 | 41.82287 | 19.91377 | 34144 ft | 422 kts | 277° |
| 2026-04-27 10:38 | 41.82947 | 19.83555 | 34136 ft | 422 kts | 277° |
| 2026-04-27 10:38 | 41.83607 | 19.75743 | 34134 ft | 422 kts | 277° |
| 2026-04-27 10:39 | 41.84252 | 19.67918 | 34127 ft | 422 kts | 277° |
| 2026-04-27 10:39 | 41.84889 | 19.60091 | 34125 ft | 422 kts | 277° |
| 2026-04-27 10:40 | 41.85525 | 19.52268 | 34125 ft | 422 kts | 277° |
| 2026-04-27 10:40 | 41.86158 | 19.44438 | 34127 ft | 422 kts | 277° |
| 2026-04-27 10:41 | 41.86784 | 19.36593 | 34126 ft | 423 kts | 277° |
| 2026-04-27 10:41 | 41.87402 | 19.28758 | 34128 ft | 423 kts | 276° |
| 2026-04-27 10:42 | 41.88019 | 19.20911 | 34128 ft | 423 kts | 276° |
| 2026-04-27 10:42 | 41.88472 | 19.16546 | 34128 ft | 422 kts | 283° |
| 2026-04-27 10:43 | 41.88861 | 19.14527 | 34131 ft | 422 kts | 286° |
| 2026-04-27 10:43 | 41.90063 | 19.08915 | 34139 ft | 423 kts | 285° |
| 2026-04-27 10:44 | 41.91614 | 19.01301 | 34133 ft | 423 kts | 285° |
| 2026-04-27 10:44 | 41.93146 | 18.93654 | 34139 ft | 423 kts | 285° |
| 2026-04-27 10:45 | 41.94694 | 18.86010 | 34141 ft | 424 kts | 285° |
| 2026-04-27 10:45 | 41.96250 | 18.78374 | 34142 ft | 424 kts | 285° |
| 2026-04-27 10:46 | 41.97804 | 18.70724 | 34145 ft | 424 kts | 285° |
| 2026-04-27 10:46 | 41.99335 | 18.63115 | 34145 ft | 425 kts | 285° |
| 2026-04-27 10:47 | 42.00841 | 18.55438 | 34145 ft | 425 kts | 281° |
| 2026-04-27 10:47 | 42.01099 | 18.47528 | 34147 ft | 426 kts | 266° |
| 2026-04-27 10:48 | 42.00587 | 18.39591 | 34146 ft | 426 kts | 266° |
| 2026-04-27 10:48 | 42.00097 | 18.31643 | 34146 ft | 427 kts | 266° |
| 2026-04-27 10:49 | 41.99595 | 18.23693 | 34150 ft | 427 kts | 266° |
| 2026-04-27 10:49 | 41.99080 | 18.15733 | 34150 ft | 427 kts | 266° |
| 2026-04-27 10:50 | 41.98563 | 18.07823 | 34151 ft | 427 kts | 266° |
| 2026-04-27 10:50 | 41.98041 | 17.99874 | 34149 ft | 428 kts | 265° |
| 2026-04-27 10:51 | 41.97512 | 17.91897 | 34149 ft | 428 kts | 265° |
| 2026-04-27 10:51 | 41.96981 | 17.83935 | 34152 ft | 428 kts | 265° |
| 2026-04-27 10:52 | 41.96444 | 17.75969 | 34151 ft | 428 kts | 265° |
| 2026-04-27 10:52 | 41.95892 | 17.68002 | 34154 ft | 428 kts | 265° |
| 2026-04-27 10:53 | 41.95064 | 17.56041 | 34156 ft | 429 kts | 265° |
| 2026-04-27 10:54 | 41.94504 | 17.48056 | 34161 ft | 429 kts | 265° |
| 2026-04-27 10:54 | 41.93936 | 17.40078 | 34159 ft | 429 kts | 265° |
| 2026-04-27 10:55 | 41.93368 | 17.32152 | 34156 ft | 430 kts | 265° |
| 2026-04-27 10:55 | 41.92763 | 17.24167 | 34156 ft | 430 kts | 264° |
| 2026-04-27 10:56 | 41.91945 | 17.16209 | 34156 ft | 430 kts | 262° |
| 2026-04-27 10:56 | 41.90983 | 17.08273 | 34154 ft | 431 kts | 261° |
| 2026-04-27 10:57 | 41.90016 | 17.00326 | 34159 ft | 431 kts | 262° |
| 2026-04-27 10:57 | 41.89087 | 16.92376 | 34152 ft | 431 kts | 262° |
| 2026-04-27 10:58 | 41.88166 | 16.84410 | 34156 ft | 432 kts | 262° |
| 2026-04-27 10:58 | 41.87229 | 16.76448 | 34148 ft | 432 kts | 262° |
| 2026-04-27 10:59 | 41.86296 | 16.68539 | 34151 ft | 432 kts | 262° |
| 2026-04-27 10:59 | 41.85351 | 16.60576 | 34152 ft | 433 kts | 262° |
| 2026-04-27 11:00 | 41.83920 | 16.48609 | 34154 ft | 433 kts | 262° |
| 2026-04-27 11:00 | 41.82959 | 16.40630 | 34154 ft | 433 kts | 262° |
| 2026-04-27 11:01 | 41.81987 | 16.32650 | 34152 ft | 434 kts | 261° |
| 2026-04-27 11:01 | 41.81008 | 16.24669 | 34154 ft | 434 kts | 261° |
| 2026-04-27 11:02 | 41.80022 | 16.16689 | 34152 ft | 434 kts | 261° |
| 2026-04-27 11:02 | 41.79029 | 16.08693 | 34159 ft | 435 kts | 261° |
| 2026-04-27 11:03 | 41.78041 | 16.00751 | 34159 ft | 435 kts | 261° |
| 2026-04-27 11:03 | 41.77044 | 15.92763 | 34164 ft | 435 kts | 261° |
| 2026-04-27 11:04 | 41.76043 | 15.84770 | 34163 ft | 435 kts | 261° |
| 2026-04-27 11:04 | 41.75026 | 15.76767 | 34159 ft | 435 kts | 261° |
| 2026-04-27 11:05 | 41.74006 | 15.68769 | 34165 ft | 436 kts | 261° |
| 2026-04-27 11:05 | 41.72975 | 15.60763 | 34143 ft | 436 kts | 261° |
| 2026-04-27 11:06 | 41.71942 | 15.52759 | 34142 ft | 436 kts | 261° |
| 2026-04-27 11:06 | 41.70913 | 15.44810 | 34148 ft | 436 kts | 261° |
| 2026-04-27 11:07 | 41.69867 | 15.36816 | 34141 ft | 436 kts | 261° |
| 2026-04-27 11:07 | 41.68819 | 15.28814 | 34146 ft | 436 kts | 261° |
| 2026-04-27 11:08 | 41.67770 | 15.20818 | 34144 ft | 437 kts | 261° |
| 2026-04-27 11:08 | 41.66714 | 15.12816 | 34143 ft | 437 kts | 261° |
| 2026-04-27 11:09 | 41.65646 | 15.04820 | 34145 ft | 437 kts | 261° |
| 2026-04-27 11:09 | 41.64575 | 14.96837 | 34150 ft | 437 kts | 261° |
| 2026-04-27 11:10 | 41.63496 | 14.88839 | 34151 ft | 437 kts | 261° |
| 2026-04-27 11:10 | 41.62415 | 14.80842 | 34144 ft | 437 kts | 261° |
| 2026-04-27 11:11 | 41.61337 | 14.72902 | 34143 ft | 437 kts | 261° |
| 2026-04-27 11:11 | 41.60243 | 14.64910 | 34149 ft | 437 kts | 261° |
| 2026-04-27 11:12 | 41.59140 | 14.56912 | 34143 ft | 437 kts | 260° |
| 2026-04-27 11:12 | 41.58029 | 14.48935 | 34146 ft | 437 kts | 260° |
| 2026-04-27 11:13 | 41.56916 | 14.40945 | 34153 ft | 437 kts | 260° |
| 2026-04-27 11:13 | 41.55807 | 14.32954 | 34148 ft | 437 kts | 260° |
| 2026-04-27 11:14 | 41.54878 | 14.26325 | 34148 ft | 438 kts | 260° |
| 2026-04-27 11:14 | 41.53744 | 14.18338 | 34154 ft | 438 kts | 260° |
| 2026-04-27 11:15 | 41.52603 | 14.10354 | 34156 ft | 438 kts | 260° |
| 2026-04-27 11:15 | 41.51457 | 14.02371 | 34158 ft | 438 kts | 260° |
| 2026-04-27 11:16 | 41.50315 | 13.94388 | 34159 ft | 438 kts | 260° |
| 2026-04-27 11:16 | 41.49168 | 13.86409 | 34159 ft | 438 kts | 260° |
| 2026-04-27 11:17 | 41.48009 | 13.78423 | 34158 ft | 438 kts | 259° |
| 2026-04-27 11:17 | 41.46857 | 13.70496 | 34162 ft | 438 kts | 260° |
| 2026-04-27 11:18 | 41.45685 | 13.62465 | 34160 ft | 438 kts | 259° |
| 2026-04-27 11:18 | 41.44515 | 13.54541 | 34162 ft | 438 kts | 259° |
| 2026-04-27 11:19 | 41.43335 | 13.46568 | 34159 ft | 439 kts | 259° |
| 2026-04-27 11:19 | 41.42149 | 13.38593 | 34159 ft | 438 kts | 259° |
| 2026-04-27 11:20 | 41.40960 | 13.30619 | 34164 ft | 439 kts | 259° |
| 2026-04-27 11:20 | 41.39765 | 13.22644 | 34164 ft | 439 kts | 259° |
| 2026-04-27 11:21 | 41.38558 | 13.14668 | 34163 ft | 439 kts | 259° |
| 2026-04-27 11:21 | 41.37344 | 13.06700 | 34166 ft | 439 kts | 259° |
| 2026-04-27 11:22 | 41.36142 | 12.98785 | 34167 ft | 439 kts | 259° |
| 2026-04-27 11:22 | 41.34927 | 12.90821 | 34167 ft | 439 kts | 259° |
| 2026-04-27 11:23 | 41.33699 | 12.82859 | 34166 ft | 439 kts | 259° |
| 2026-04-27 11:23 | 41.32461 | 12.74899 | 34169 ft | 439 kts | 259° |
| 2026-04-27 11:24 | 41.31220 | 12.66941 | 34171 ft | 439 kts | 259° |
| 2026-04-27 11:24 | 41.29983 | 12.58992 | 34170 ft | 439 kts | 259° |
| 2026-04-27 11:25 | 41.28739 | 12.51036 | 34174 ft | 439 kts | 259° |
| 2026-04-27 11:25 | 41.27488 | 12.43088 | 34173 ft | 439 kts | 258° |
| 2026-04-27 11:26 | 41.26226 | 12.35145 | 34173 ft | 439 kts | 258° |
| 2026-04-27 11:26 | 41.24965 | 12.27254 | 34175 ft | 439 kts | 258° |
| 2026-04-27 11:27 | 41.23694 | 12.19312 | 34177 ft | 439 kts | 258° |
| 2026-04-27 11:27 | 41.22421 | 12.11368 | 34179 ft | 439 kts | 258° |
| 2026-04-27 11:28 | 41.21140 | 12.03423 | 34179 ft | 440 kts | 258° |
| 2026-04-27 11:28 | 41.19852 | 11.95484 | 34176 ft | 440 kts | 258° |
| 2026-04-27 11:29 | 41.18564 | 11.87597 | 34177 ft | 440 kts | 258° |
| 2026-04-27 11:29 | 41.17268 | 11.79667 | 34181 ft | 440 kts | 258° |
| 2026-04-27 11:30 | 41.15963 | 11.71729 | 34181 ft | 440 kts | 258° |
| 2026-04-27 11:30 | 41.14651 | 11.63792 | 34173 ft | 440 kts | 258° |
| 2026-04-27 11:31 | 41.13338 | 11.55860 | 34180 ft | 440 kts | 258° |
| 2026-04-27 11:31 | 41.12020 | 11.47935 | 34175 ft | 440 kts | 258° |
| 2026-04-27 11:32 | 41.10695 | 11.40009 | 34170 ft | 440 kts | 258° |
| 2026-04-27 11:32 | 41.09369 | 11.32137 | 34179 ft | 440 kts | 258° |
| 2026-04-27 11:33 | 41.08034 | 11.24273 | 34172 ft | 434 kts | 258° |
| 2026-04-27 11:33 | 41.06702 | 11.16463 | 34174 ft | 433 kts | 258° |
| 2026-04-27 11:34 | 41.05376 | 11.08663 | 34175 ft | 434 kts | 258° |
| 2026-04-27 11:34 | 41.04049 | 11.00876 | 34177 ft | 434 kts | 258° |
| 2026-04-27 11:35 | 41.02717 | 10.93076 | 34177 ft | 434 kts | 257° |
| 2026-04-27 11:35 | 41.01374 | 10.85282 | 34181 ft | 434 kts | 257° |
| 2026-04-27 11:36 | 41.00015 | 10.77481 | 34176 ft | 435 kts | 257° |
| 2026-04-27 11:36 | 40.98660 | 10.69696 | 34176 ft | 435 kts | 257° |
| 2026-04-27 11:37 | 40.97295 | 10.61899 | 34174 ft | 435 kts | 257° |
| 2026-04-27 11:37 | 40.95917 | 10.54091 | 34172 ft | 436 kts | 257° |
| 2026-04-27 11:38 | 40.94555 | 10.46330 | 34172 ft | 436 kts | 257° |
| 2026-04-27 11:38 | 40.93171 | 10.38515 | 34168 ft | 436 kts | 257° |
| 2026-04-27 11:39 | 40.91772 | 10.30717 | 34167 ft | 436 kts | 257° |
| 2026-04-27 11:39 | 40.90383 | 10.22912 | 34169 ft | 436 kts | 257° |
| 2026-04-27 11:40 | 40.88989 | 10.15114 | 34168 ft | 436 kts | 257° |
| 2026-04-27 11:40 | 40.87578 | 10.07314 | 34164 ft | 436 kts | 257° |
| 2026-04-27 11:41 | 40.86169 | 9.99522 | 34163 ft | 436 kts | 257° |
| 2026-04-27 11:41 | 40.84763 | 9.91770 | 34155 ft | 436 kts | 256° |
| 2026-04-27 11:42 | 40.83342 | 9.83985 | 34151 ft | 436 kts | 256° |
| 2026-04-27 11:42 | 40.81726 | 9.76269 | 34146 ft | 436 kts | 252° |
| 2026-04-27 11:43 | 40.79835 | 9.68666 | 34142 ft | 436 kts | 251° |
| 2026-04-27 11:43 | 40.77915 | 9.61081 | 34142 ft | 436 kts | 252° |
| 2026-04-27 11:44 | 40.76051 | 9.53461 | 34133 ft | 436 kts | 252° |
| 2026-04-27 11:44 | 40.74217 | 9.45840 | 34138 ft | 436 kts | 252° |
| 2026-04-27 11:45 | 40.72683 | 9.39503 | 34138 ft | 436 kts | 252° |
| 2026-04-27 11:45 | 40.70508 | 9.30617 | 34139 ft | 436 kts | 252° |
| 2026-04-27 11:46 | 40.68642 | 9.23017 | 34137 ft | 435 kts | 252° |
| 2026-04-27 11:46 | 40.66773 | 9.15428 | 34129 ft | 436 kts | 252° |
| 2026-04-27 11:47 | 40.64909 | 9.07887 | 34129 ft | 435 kts | 252° |
| 2026-04-27 11:47 | 40.63037 | 9.00320 | 34129 ft | 435 kts | 252° |
| 2026-04-27 11:48 | 40.61148 | 8.92738 | 34129 ft | 435 kts | 251° |
| 2026-04-27 11:48 | 40.59254 | 8.85151 | 34131 ft | 435 kts | 251° |
| 2026-04-27 11:49 | 40.57371 | 8.77601 | 34133 ft | 434 kts | 251° |
| 2026-04-27 11:49 | 40.55497 | 8.70099 | 34133 ft | 435 kts | 251° |
| 2026-04-27 11:50 | 40.53597 | 8.62545 | 34140 ft | 434 kts | 251° |
| 2026-04-27 11:50 | 40.51687 | 8.55006 | 34139 ft | 434 kts | 251° |
| 2026-04-27 11:51 | 40.49770 | 8.47478 | 34142 ft | 434 kts | 251° |
| 2026-04-27 11:52 | 40.46899 | 8.36185 | 34140 ft | 434 kts | 251° |
| 2026-04-27 11:52 | 40.44973 | 8.28663 | 34140 ft | 435 kts | 251° |
| 2026-04-27 11:53 | 40.43607 | 8.20959 | 34145 ft | 435 kts | 265° |
| 2026-04-27 11:53 | 40.43196 | 8.13034 | 34146 ft | 435 kts | 265° |
| 2026-04-27 11:54 | 40.42755 | 8.05113 | 34149 ft | 435 kts | 265° |
| 2026-04-27 11:54 | 40.42321 | 7.98806 | 34151 ft | 434 kts | 260° |
| 2026-04-27 11:55 | 40.41330 | 7.91036 | 34151 ft | 435 kts | 260° |
| 2026-04-27 11:55 | 40.40342 | 7.83205 | 34152 ft | 435 kts | 261° |
| 2026-04-27 11:56 | 40.39358 | 7.75372 | 34154 ft | 435 kts | 261° |
| 2026-04-27 11:56 | 40.38363 | 7.67546 | 34153 ft | 435 kts | 260° |
| 2026-04-27 11:57 | 40.37352 | 7.59729 | 34341 ft | 434 kts | 260° |
| 2026-04-27 11:57 | 40.36843 | 7.55825 | 34580 ft | 434 kts | 261° |
| 2026-04-27 11:57 | 40.36334 | 7.51921 | 34817 ft | 434 kts | 261° |
| 2026-04-27 11:57 | 40.35828 | 7.48020 | 35044 ft | 434 kts | 261° |
| 2026-04-27 11:58 | 40.35322 | 7.44101 | 35137 ft | 435 kts | 261° |
| 2026-04-27 11:58 | 40.34309 | 7.36356 | 35154 ft | 434 kts | 261° |
| 2026-04-27 11:59 | 40.33287 | 7.28566 | 35157 ft | 434 kts | 261° |
| 2026-04-27 11:59 | 40.32257 | 7.20780 | 35156 ft | 434 kts | 261° |
| 2026-04-27 12:00 | 40.31224 | 7.12985 | 35155 ft | 434 kts | 261° |
| 2026-04-27 12:00 | 40.30190 | 7.05195 | 35155 ft | 434 kts | 261° |
| 2026-04-27 12:01 | 40.29142 | 6.97404 | 35162 ft | 435 kts | 261° |
| 2026-04-27 12:01 | 40.28089 | 6.89602 | 35169 ft | 435 kts | 261° |
| 2026-04-27 12:02 | 40.27031 | 6.81796 | 35165 ft | 435 kts | 261° |
| 2026-04-27 12:02 | 40.26154 | 6.75315 | 35163 ft | 435 kts | 261° |
| 2026-04-27 12:03 | 40.25092 | 6.67528 | 35166 ft | 435 kts | 261° |
| 2026-04-27 12:03 | 40.24006 | 6.59709 | 35165 ft | 435 kts | 261° |
| 2026-04-27 12:04 | 40.22925 | 6.51917 | 35160 ft | 435 kts | 261° |
| 2026-04-27 12:04 | 40.21848 | 6.44110 | 35166 ft | 436 kts | 261° |
| 2026-04-27 12:05 | 40.20766 | 6.36313 | 35165 ft | 436 kts | 261° |
| 2026-04-27 12:05 | 40.19669 | 6.28507 | 35163 ft | 436 kts | 261° |
| 2026-04-27 12:06 | 40.18576 | 6.20751 | 35161 ft | 436 kts | 261° |
| 2026-04-27 12:06 | 40.17476 | 6.12935 | 35159 ft | 437 kts | 261° |
| 2026-04-27 12:07 | 40.16357 | 6.05124 | 35162 ft | 437 kts | 261° |
| 2026-04-27 12:07 | 40.15229 | 5.97317 | 35160 ft | 437 kts | 261° |
| 2026-04-27 12:08 | 40.14104 | 5.89502 | 35159 ft | 438 kts | 261° |
| 2026-04-27 12:08 | 40.12980 | 5.81680 | 35162 ft | 438 kts | 261° |
| 2026-04-27 12:09 | 40.11881 | 5.73859 | 35165 ft | 438 kts | 261° |
| 2026-04-27 12:09 | 40.10778 | 5.66021 | 35166 ft | 438 kts | 261° |
| 2026-04-27 12:10 | 40.09666 | 5.58189 | 35167 ft | 439 kts | 261° |
| 2026-04-27 12:10 | 40.08558 | 5.50384 | 35168 ft | 439 kts | 261° |
| 2026-04-27 12:11 | 40.07431 | 5.42556 | 35171 ft | 439 kts | 261° |
| 2026-04-27 12:11 | 40.06329 | 5.34953 | 35168 ft | 439 kts | 261° |
| 2026-04-27 12:12 | 40.05189 | 5.27112 | 35176 ft | 439 kts | 261° |
| 2026-04-27 12:12 | 40.04042 | 5.19280 | 35171 ft | 440 kts | 261° |
| 2026-04-27 12:13 | 40.02895 | 5.11441 | 35174 ft | 440 kts | 261° |
| 2026-04-27 12:13 | 40.01743 | 5.03605 | 35176 ft | 440 kts | 261° |
| 2026-04-27 12:14 | 40.00573 | 4.95752 | 35169 ft | 440 kts | 261° |
| 2026-04-27 12:14 | 39.99406 | 4.87912 | 35170 ft | 441 kts | 261° |
| 2026-04-27 12:15 | 39.98249 | 4.80109 | 35165 ft | 441 kts | 261° |
| 2026-04-27 12:15 | 39.96956 | 4.72293 | 35168 ft | 442 kts | 257° |
| 2026-04-27 12:16 | 39.95340 | 4.64555 | 35171 ft | 442 kts | 256° |
| 2026-04-27 12:16 | 39.93659 | 4.56844 | 35174 ft | 442 kts | 256° |
| 2026-04-27 12:17 | 39.92039 | 4.49111 | 35178 ft | 442 kts | 256° |
| 2026-04-27 12:17 | 39.90453 | 4.41380 | 35182 ft | 442 kts | 256° |
| 2026-04-27 12:18 | 39.88857 | 4.33646 | 35179 ft | 442 kts | 256° |
| 2026-04-27 12:18 | 39.87250 | 4.25918 | 35177 ft | 442 kts | 256° |
| 2026-04-27 12:19 | 39.85637 | 4.18196 | 35178 ft | 442 kts | 256° |
| 2026-04-27 12:19 | 39.84027 | 4.10476 | 35178 ft | 442 kts | 256° |
| 2026-04-27 12:20 | 39.82415 | 4.02760 | 35181 ft | 442 kts | 256° |
| 2026-04-27 12:20 | 39.80793 | 3.95041 | 35181 ft | 442 kts | 256° |
| 2026-04-27 12:21 | 39.79153 | 3.87328 | 35176 ft | 442 kts | 256° |
| 2026-04-27 12:21 | 39.77520 | 3.79622 | 35175 ft | 442 kts | 256° |
| 2026-04-27 12:22 | 39.75885 | 3.71933 | 35169 ft | 441 kts | 255° |
| 2026-04-27 12:22 | 39.74255 | 3.64305 | 35173 ft | 441 kts | 255° |
| 2026-04-27 12:23 | 39.72611 | 3.56635 | 35172 ft | 441 kts | 255° |
| 2026-04-27 12:23 | 39.70952 | 3.48970 | 35166 ft | 440 kts | 255° |
| 2026-04-27 12:24 | 39.69256 | 3.41324 | 35168 ft | 440 kts | 253° |
| 2026-04-27 12:24 | 39.67219 | 3.33831 | 35169 ft | 440 kts | 250° |
| 2026-04-27 12:25 | 39.65006 | 3.26420 | 35165 ft | 440 kts | 250° |
| 2026-04-27 12:25 | 39.62831 | 3.18994 | 35169 ft | 440 kts | 250° |
| 2026-04-27 12:26 | 39.60717 | 3.11555 | 35166 ft | 439 kts | 251° |
| 2026-04-27 12:26 | 39.58620 | 3.04118 | 35163 ft | 439 kts | 251° |
| 2026-04-27 12:27 | 39.56503 | 2.96694 | 35158 ft | 439 kts | 250° |
| 2026-04-27 12:27 | 39.54389 | 2.89339 | 35155 ft | 439 kts | 250° |
| 2026-04-27 12:28 | 39.52258 | 2.81925 | 35158 ft | 439 kts | 250° |
| 2026-04-27 12:28 | 39.50131 | 2.74531 | 35157 ft | 438 kts | 250° |
| 2026-04-27 12:29 | 39.47999 | 2.67142 | 35160 ft | 438 kts | 250° |
| 2026-04-27 12:29 | 39.45860 | 2.59763 | 35151 ft | 438 kts | 250° |
| 2026-04-27 12:30 | 39.43713 | 2.52392 | 35152 ft | 437 kts | 250° |
| 2026-04-27 12:30 | 39.41561 | 2.45034 | 35151 ft | 437 kts | 250° |
| 2026-04-27 12:31 | 39.39410 | 2.37673 | 35155 ft | 437 kts | 250° |
| 2026-04-27 12:31 | 39.37266 | 2.30325 | 35163 ft | 437 kts | 250° |
| 2026-04-27 12:32 | 39.35109 | 2.22976 | 35161 ft | 437 kts | 250° |
| 2026-04-27 12:32 | 39.32943 | 2.15636 | 35164 ft | 437 kts | 250° |
| 2026-04-27 12:33 | 39.30772 | 2.08309 | 35165 ft | 437 kts | 250° |
| 2026-04-27 12:33 | 39.28609 | 2.01026 | 35168 ft | 437 kts | 250° |
| 2026-04-27 12:34 | 39.26434 | 1.93697 | 35164 ft | 437 kts | 250° |
| 2026-04-27 12:34 | 39.24257 | 1.86376 | 35168 ft | 437 kts | 250° |
| 2026-04-27 12:35 | 39.22065 | 1.79060 | 35157 ft | 437 kts | 250° |
| 2026-04-27 12:35 | 39.19869 | 1.71745 | 35158 ft | 437 kts | 250° |
| 2026-04-27 12:36 | 39.17673 | 1.64431 | 35154 ft | 437 kts | 250° |
| 2026-04-27 12:36 | 39.15661 | 1.57765 | 35149 ft | 437 kts | 250° |
| 2026-04-27 12:37 | 39.13453 | 1.50463 | 35151 ft | 437 kts | 250° |
| 2026-04-27 12:37 | 39.11245 | 1.43154 | 35153 ft | 437 kts | 250° |
| 2026-04-27 12:38 | 39.09038 | 1.35864 | 35149 ft | 437 kts | 250° |
| 2026-04-27 12:38 | 39.06814 | 1.28571 | 35152 ft | 437 kts | 250° |
| 2026-04-27 12:39 | 39.04586 | 1.21290 | 35152 ft | 437 kts | 250° |
| 2026-04-27 12:39 | 39.02370 | 1.14047 | 35153 ft | 437 kts | 250° |
| 2026-04-27 12:40 | 39.00140 | 1.06778 | 35162 ft | 437 kts | 250° |
| 2026-04-27 12:40 | 38.97898 | 0.99510 | 35160 ft | 437 kts | 249° |
| 2026-04-27 12:41 | 38.95657 | 0.92245 | 35163 ft | 437 kts | 250° |
| 2026-04-27 12:41 | 38.93418 | 0.84992 | 35160 ft | 437 kts | 249° |
| 2026-04-27 12:42 | 38.91170 | 0.77745 | 35159 ft | 437 kts | 249° |
| 2026-04-27 12:42 | 38.88910 | 0.70504 | 35159 ft | 436 kts | 249° |
| 2026-04-27 12:43 | 38.86658 | 0.63277 | 35157 ft | 436 kts | 249° |
| 2026-04-27 12:43 | 38.84417 | 0.56104 | 35158 ft | 436 kts | 249° |
| 2026-04-27 12:44 | 38.82103 | 0.48923 | 35156 ft | 436 kts | 244° |
| 2026-04-27 12:44 | 38.78890 | 0.42328 | 35155 ft | 436 kts | 238° |
| 2026-04-27 12:45 | 38.75541 | 0.35843 | 35149 ft | 436 kts | 238° |
| 2026-04-27 12:45 | 38.72189 | 0.29373 | 35153 ft | 436 kts | 238° |
| 2026-04-27 12:46 | 38.68832 | 0.22910 | 35149 ft | 435 kts | 238° |
| 2026-04-27 12:46 | 38.65483 | 0.16456 | 35150 ft | 435 kts | 238° |
| 2026-04-27 12:47 | 38.62129 | 0.10014 | 35152 ft | 435 kts | 238° |
| 2026-04-27 12:47 | 38.58773 | 0.03589 | 35150 ft | 435 kts | 238° |
| 2026-04-27 12:48 | 38.55416 | -0.02836 | 35155 ft | 435 kts | 238° |
| 2026-04-27 12:48 | 38.52054 | -0.09251 | 35151 ft | 434 kts | 238° |
| 2026-04-27 12:49 | 38.49258 | -0.14575 | 35156 ft | 434 kts | 238° |
| 2026-04-27 12:49 | 38.45897 | -0.20979 | 35157 ft | 434 kts | 238° |
| 2026-04-27 12:50 | 38.42527 | -0.27375 | 35155 ft | 434 kts | 238° |
| 2026-04-27 12:50 | 38.39155 | -0.33758 | 35154 ft | 434 kts | 238° |
| 2026-04-27 12:51 | 38.35775 | -0.40135 | 35157 ft | 434 kts | 238° |
| 2026-04-27 12:51 | 38.32403 | -0.46502 | 35151 ft | 433 kts | 238° |
| 2026-04-27 12:52 | 38.29036 | -0.52846 | 35148 ft | 432 kts | 238° |
| 2026-04-27 12:52 | 38.25982 | -0.59349 | 35148 ft | 429 kts | 247° |
| 2026-04-27 12:53 | 38.22265 | -0.69721 | 35149 ft | 430 kts | 247° |
| 2026-04-27 12:53 | 38.19756 | -0.76616 | 35151 ft | 430 kts | 247° |
| 2026-04-27 12:54 | 38.17248 | -0.83511 | 35159 ft | 430 kts | 247° |
| 2026-04-27 12:54 | 38.14749 | -0.90405 | 35158 ft | 429 kts | 247° |
| 2026-04-27 12:55 | 38.12249 | -0.97291 | 35158 ft | 429 kts | 246° |
| 2026-04-27 12:55 | 38.09740 | -1.04172 | 35152 ft | 429 kts | 246° |
| 2026-04-27 12:56 | 38.07244 | -1.11010 | 35151 ft | 429 kts | 246° |
| 2026-04-27 12:56 | 38.04727 | -1.17884 | 35151 ft | 429 kts | 246° |
| 2026-04-27 12:57 | 38.02204 | -1.24753 | 35149 ft | 429 kts | 246° |
| 2026-04-27 12:57 | 37.99680 | -1.31616 | 35146 ft | 429 kts | 246° |
| 2026-04-27 12:58 | 37.97152 | -1.38467 | 35141 ft | 429 kts | 246° |
| 2026-04-27 12:58 | 37.94617 | -1.45317 | 35140 ft | 429 kts | 246° |
| 2026-04-27 12:59 | 37.92081 | -1.52166 | 35136 ft | 429 kts | 246° |
| 2026-04-27 12:59 | 37.89538 | -1.59004 | 35131 ft | 429 kts | 246° |
| 2026-04-27 13:00 | 37.87011 | -1.65802 | 35133 ft | 429 kts | 246° |
| 2026-04-27 13:00 | 37.84471 | -1.72632 | 35128 ft | 429 kts | 245° |
| 2026-04-27 13:01 | 37.81917 | -1.79455 | 35127 ft | 429 kts | 245° |
| 2026-04-27 13:01 | 37.79361 | -1.86274 | 35126 ft | 429 kts | 245° |
| 2026-04-27 13:02 | 37.76804 | -1.93085 | 35128 ft | 429 kts | 245° |
| 2026-04-27 13:02 | 37.74239 | -1.99885 | 35125 ft | 429 kts | 245° |
| 2026-04-27 13:03 | 37.71669 | -2.06696 | 35126 ft | 430 kts | 245° |
| 2026-04-27 13:03 | 37.69095 | -2.13499 | 35119 ft | 429 kts | 245° |
| 2026-04-27 13:04 | 37.66518 | -2.20305 | 35119 ft | 429 kts | 245° |
| 2026-04-27 13:04 | 37.63934 | -2.27090 | 35121 ft | 429 kts | 245° |
| 2026-04-27 13:05 | 37.61367 | -2.33828 | 35115 ft | 428 kts | 245° |
| 2026-04-27 13:05 | 37.58788 | -2.40594 | 35109 ft | 428 kts | 244° |
| 2026-04-27 13:06 | 37.56204 | -2.47352 | 35107 ft | 427 kts | 244° |
| 2026-04-27 13:06 | 37.53623 | -2.54095 | 35099 ft | 427 kts | 244° |
| 2026-04-27 13:07 | 37.51038 | -2.60835 | 35092 ft | 427 kts | 244° |
| 2026-04-27 13:07 | 37.48450 | -2.67563 | 35081 ft | 427 kts | 244° |
| 2026-04-27 13:08 | 37.45851 | -2.74301 | 35071 ft | 428 kts | 244° |
| 2026-04-27 13:08 | 37.43250 | -2.81039 | 35060 ft | 428 kts | 244° |
| 2026-04-27 13:09 | 37.40643 | -2.87786 | 35049 ft | 429 kts | 244° |
| 2026-04-27 13:09 | 37.38044 | -2.94504 | 35053 ft | 430 kts | 244° |
| 2026-04-27 13:10 | 37.35417 | -3.01273 | 35049 ft | 431 kts | 243° |
| 2026-04-27 13:10 | 37.32780 | -3.08040 | 35055 ft | 432 kts | 243° |
| 2026-04-27 13:11 | 37.30128 | -3.14820 | 35059 ft | 432 kts | 243° |
| 2026-04-27 13:11 | 37.27479 | -3.21590 | 35064 ft | 432 kts | 243° |
| 2026-04-27 13:12 | 37.24817 | -3.28373 | 35063 ft | 432 kts | 243° |
| 2026-04-27 13:12 | 37.22157 | -3.35141 | 35065 ft | 433 kts | 243° |
| 2026-04-27 13:13 | 37.19485 | -3.41916 | 35064 ft | 433 kts | 243° |
| 2026-04-27 13:13 | 37.16825 | -3.48639 | 35057 ft | 433 kts | 243° |
| 2026-04-27 13:14 | 37.14151 | -3.55398 | 35050 ft | 433 kts | 243° |
| 2026-04-27 13:14 | 37.11474 | -3.62151 | 35047 ft | 433 kts | 243° |
| 2026-04-27 13:15 | 37.08787 | -3.68910 | 35049 ft | 433 kts | 243° |
| 2026-04-27 13:15 | 37.06096 | -3.75661 | 35049 ft | 433 kts | 243° |
| 2026-04-27 13:16 | 37.03414 | -3.82392 | 35051 ft | 432 kts | 242° |
| 2026-04-27 13:16 | 37.00720 | -3.89124 | 35052 ft | 432 kts | 242° |
| 2026-04-27 13:17 | 36.98025 | -3.95842 | 35059 ft | 432 kts | 242° |
| 2026-04-27 13:17 | 36.95331 | -4.02553 | 35061 ft | 431 kts | 242° |
| 2026-04-27 13:18 | 36.92631 | -4.09250 | 35067 ft | 431 kts | 242° |
| 2026-04-27 13:18 | 36.89945 | -4.15906 | 35073 ft | 431 kts | 242° |
| 2026-04-27 13:19 | 36.87243 | -4.22597 | 35076 ft | 431 kts | 242° |
| 2026-04-27 13:19 | 36.84543 | -4.29279 | 35081 ft | 431 kts | 242° |
| 2026-04-27 13:20 | 36.81834 | -4.35951 | 35080 ft | 431 kts | 243° |
| 2026-04-27 13:20 | 36.79684 | -4.42931 | 35083 ft | 431 kts | 249° |
| 2026-04-27 13:21 | 36.77640 | -4.49968 | 35080 ft | 431 kts | 249° |
| 2026-04-27 13:21 | 36.75588 | -4.56997 | 35081 ft | 431 kts | 249° |
| 2026-04-27 13:22 | 36.73537 | -4.64011 | 35082 ft | 430 kts | 249° |
| 2026-04-27 13:22 | 36.71495 | -4.70970 | 35080 ft | 430 kts | 249° |
| 2026-04-27 13:23 | 36.69434 | -4.77978 | 35080 ft | 430 kts | 249° |
| 2026-04-27 13:23 | 36.67373 | -4.84970 | 35079 ft | 429 kts | 248° |
| 2026-04-27 13:24 | 36.65312 | -4.91963 | 35078 ft | 429 kts | 248° |
| 2026-04-27 13:24 | 36.63242 | -4.98933 | 35079 ft | 429 kts | 248° |
| 2026-04-27 13:25 | 36.61174 | -5.05886 | 35074 ft | 428 kts | 248° |
| 2026-04-27 13:25 | 36.59107 | -5.12829 | 35069 ft | 428 kts | 248° |
| 2026-04-27 13:26 | 36.57037 | -5.19764 | 35067 ft | 427 kts | 248° |
| 2026-04-27 13:26 | 36.54962 | -5.26684 | 35059 ft | 427 kts | 248° |
| 2026-04-27 13:27 | 36.52896 | -5.33558 | 35053 ft | 426 kts | 248° |
| 2026-04-27 13:27 | 36.50813 | -5.40455 | 35046 ft | 426 kts | 245° |
| 2026-04-27 13:28 | 36.47999 | -5.46890 | 35041 ft | 423 kts | 238° |
| 2026-04-27 13:28 | 36.45019 | -5.53192 | 35040 ft | 423 kts | 238° |
| 2026-04-27 13:29 | 36.42041 | -5.59495 | 35038 ft | 422 kts | 238° |
| 2026-04-27 13:29 | 36.39068 | -5.65779 | 35032 ft | 421 kts | 238° |
| 2026-04-27 13:30 | 36.36085 | -5.72045 | 35024 ft | 421 kts | 238° |
| 2026-04-27 13:30 | 36.33126 | -5.78259 | 35016 ft | 420 kts | 238° |
| 2026-04-27 13:31 | 36.30164 | -5.84489 | 35008 ft | 419 kts | 238° |
| 2026-04-27 13:31 | 36.27198 | -5.90710 | 35001 ft | 418 kts | 238° |
| 2026-04-27 13:32 | 36.24229 | -5.96900 | 34991 ft | 417 kts | 236° |
| 2026-04-27 13:32 | 36.20789 | -6.02682 | 34972 ft | 416 kts | 231° |
| 2026-04-27 13:33 | 36.17283 | -6.08377 | 34969 ft | 416 kts | 231° |
| 2026-04-27 13:33 | 36.13778 | -6.14084 | 34954 ft | 416 kts | 231° |
| 2026-04-27 13:34 | 36.10268 | -6.19775 | 34954 ft | 416 kts | 232° |
| 2026-04-27 13:34 | 36.06779 | -6.25439 | 34950 ft | 416 kts | 232° |
| 2026-04-27 13:35 | 36.03260 | -6.31134 | 34953 ft | 417 kts | 231° |
| 2026-04-27 13:35 | 35.99736 | -6.36818 | 34945 ft | 417 kts | 231° |
| 2026-04-27 13:36 | 35.96203 | -6.42514 | 34936 ft | 418 kts | 231° |
| 2026-04-27 13:36 | 35.93260 | -6.47252 | 34924 ft | 418 kts | 231° |
| 2026-04-27 13:37 | 35.89718 | -6.52952 | 34923 ft | 419 kts | 231° |
| 2026-04-27 13:37 | 35.86174 | -6.58652 | 34923 ft | 419 kts | 231° |
| 2026-04-27 13:38 | 35.82624 | -6.64345 | 34916 ft | 418 kts | 231° |
| 2026-04-27 13:38 | 35.79073 | -6.70019 | 34916 ft | 418 kts | 231° |
| 2026-04-27 13:39 | 35.75514 | -6.75702 | 34918 ft | 419 kts | 231° |
| 2026-04-27 13:39 | 35.71965 | -6.81392 | 34916 ft | 419 kts | 231° |
| 2026-04-27 13:40 | 35.68427 | -6.87038 | 34913 ft | 420 kts | 231° |
| 2026-04-27 13:40 | 35.64845 | -6.92718 | 34911 ft | 420 kts | 231° |
| 2026-04-27 13:41 | 35.61261 | -6.98408 | 34909 ft | 421 kts | 231° |
| 2026-04-27 13:41 | 35.57659 | -7.04107 | 34904 ft | 422 kts | 231° |
| 2026-04-27 13:42 | 35.54056 | -7.09807 | 34901 ft | 423 kts | 231° |
| 2026-04-27 13:42 | 35.50439 | -7.15528 | 34903 ft | 424 kts | 231° |
| 2026-04-27 13:43 | 35.46811 | -7.21257 | 34906 ft | 425 kts | 231° |
| 2026-04-27 13:43 | 35.43171 | -7.26977 | 34909 ft | 426 kts | 231° |
| 2026-04-27 13:44 | 35.39521 | -7.32711 | 34912 ft | 427 kts | 231° |
| 2026-04-27 13:44 | 35.35895 | -7.38405 | 34915 ft | 427 kts | 231° |
| 2026-04-27 13:45 | 35.32237 | -7.44138 | 34919 ft | 427 kts | 231° |
| 2026-04-27 13:45 | 35.28574 | -7.49868 | 34919 ft | 427 kts | 231° |
| 2026-04-27 13:46 | 35.24909 | -7.55585 | 34918 ft | 427 kts | 231° |
| 2026-04-27 13:46 | 35.21241 | -7.61312 | 34919 ft | 427 kts | 231° |
| 2026-04-27 13:47 | 35.17569 | -7.67034 | 34919 ft | 427 kts | 230° |
| 2026-04-27 13:47 | 35.13889 | -7.72738 | 34919 ft | 427 kts | 230° |
| 2026-04-27 13:48 | 35.10229 | -7.78408 | 34918 ft | 427 kts | 230° |
| 2026-04-27 13:48 | 35.06544 | -7.84109 | 34918 ft | 427 kts | 230° |
| 2026-04-27 13:49 | 35.02865 | -7.89811 | 34917 ft | 427 kts | 230° |
| 2026-04-27 13:49 | 34.99182 | -7.95502 | 34917 ft | 427 kts | 230° |
| 2026-04-27 13:50 | 34.95487 | -8.01176 | 34918 ft | 427 kts | 230° |
| 2026-04-27 13:50 | 34.91792 | -8.06857 | 34916 ft | 427 kts | 230° |
| 2026-04-27 13:51 | 34.88098 | -8.12544 | 34916 ft | 427 kts | 230° |
| 2026-04-27 13:51 | 34.84421 | -8.18194 | 34916 ft | 428 kts | 230° |
| 2026-04-27 13:52 | 34.80720 | -8.23864 | 34913 ft | 428 kts | 230° |
| 2026-04-27 13:52 | 34.77007 | -8.29524 | 34912 ft | 428 kts | 230° |
| 2026-04-27 13:53 | 34.71434 | -8.38019 | 34913 ft | 428 kts | 230° |
| 2026-04-27 13:54 | 34.67723 | -8.43686 | 34916 ft | 428 kts | 230° |
| 2026-04-27 13:54 | 34.64025 | -8.49312 | 34909 ft | 429 kts | 230° |
| 2026-04-27 13:55 | 34.60297 | -8.54965 | 34914 ft | 429 kts | 230° |
| 2026-04-27 13:55 | 34.56563 | -8.60613 | 34916 ft | 429 kts | 230° |
| 2026-04-27 13:56 | 34.52834 | -8.66265 | 34905 ft | 429 kts | 230° |
| 2026-04-27 13:56 | 34.49095 | -8.71918 | 34911 ft | 430 kts | 230° |
| 2026-04-27 13:57 | 34.45336 | -8.77558 | 34908 ft | 429 kts | 227° |
| 2026-04-27 13:57 | 34.40892 | -8.82343 | 34919 ft | 428 kts | 217° |
| 2026-04-27 13:58 | 34.36230 | -8.86820 | 34914 ft | 428 kts | 217° |
| 2026-04-27 13:58 | 34.31570 | -8.91295 | 34914 ft | 428 kts | 217° |
| 2026-04-27 13:59 | 34.26931 | -8.95744 | 34915 ft | 428 kts | 217° |
| 2026-04-27 13:59 | 34.22257 | -9.00224 | 34920 ft | 429 kts | 217° |
| 2026-04-27 14:00 | 34.17575 | -9.04702 | 34927 ft | 429 kts | 217° |
| 2026-04-27 14:00 | 34.12891 | -9.09176 | 34919 ft | 429 kts | 217° |
| 2026-04-27 14:01 | 34.08201 | -9.13641 | 34919 ft | 430 kts | 217° |
| 2026-04-27 14:01 | 34.03510 | -9.18109 | 34922 ft | 430 kts | 217° |
| 2026-04-27 14:02 | 33.98808 | -9.22576 | 34919 ft | 430 kts | 217° |
| 2026-04-27 14:02 | 33.94106 | -9.27035 | 34923 ft | 430 kts | 217° |
| 2026-04-27 14:03 | 33.89409 | -9.31497 | 34919 ft | 430 kts | 217° |
| 2026-04-27 14:03 | 33.84703 | -9.35957 | 34916 ft | 430 kts | 217° |
| 2026-04-27 14:04 | 33.79989 | -9.40405 | 34918 ft | 431 kts | 217° |
| 2026-04-27 14:04 | 33.75273 | -9.44853 | 34924 ft | 431 kts | 217° |
| 2026-04-27 14:05 | 33.70560 | -9.49306 | 34920 ft | 431 kts | 217° |
| 2026-04-27 14:05 | 33.65873 | -9.53721 | 34921 ft | 431 kts | 217° |
| 2026-04-27 14:06 | 33.61142 | -9.58164 | 34924 ft | 431 kts | 217° |
| 2026-04-27 14:06 | 33.56409 | -9.62599 | 34923 ft | 432 kts | 217° |
| 2026-04-27 14:07 | 33.51678 | -9.67031 | 34921 ft | 432 kts | 217° |
| 2026-04-27 14:07 | 33.46937 | -9.71474 | 34919 ft | 432 kts | 217° |
| 2026-04-27 14:08 | 33.42190 | -9.75908 | 34922 ft | 432 kts | 217° |
| 2026-04-27 14:08 | 33.37469 | -9.80314 | 34923 ft | 433 kts | 217° |
| 2026-04-27 14:09 | 33.32724 | -9.84740 | 34928 ft | 433 kts | 217° |
| 2026-04-27 14:09 | 33.27974 | -9.89155 | 34929 ft | 433 kts | 217° |
| 2026-04-27 14:10 | 33.23207 | -9.93570 | 34932 ft | 433 kts | 217° |
| 2026-04-27 14:10 | 33.18452 | -9.97983 | 34933 ft | 433 kts | 217° |
| 2026-04-27 14:11 | 33.13696 | -10.02398 | 34933 ft | 433 kts | 217° |
| 2026-04-27 14:11 | 33.08924 | -10.06805 | 34934 ft | 433 kts | 217° |
| 2026-04-27 14:12 | 33.04156 | -10.11202 | 34939 ft | 434 kts | 217° |
| 2026-04-27 14:12 | 32.99390 | -10.15612 | 34941 ft | 434 kts | 217° |
| 2026-04-27 14:13 | 32.94640 | -10.19979 | 34943 ft | 434 kts | 217° |
| 2026-04-27 14:13 | 32.89825 | -10.24396 | 34943 ft | 434 kts | 217° |
| 2026-04-27 14:14 | 32.85077 | -10.28761 | 34949 ft | 434 kts | 217° |
| 2026-04-27 14:14 | 32.80295 | -10.33152 | 34949 ft | 434 kts | 217° |
| 2026-04-27 14:15 | 32.75506 | -10.37530 | 34952 ft | 434 kts | 217° |
| 2026-04-27 14:15 | 32.70705 | -10.41908 | 34954 ft | 435 kts | 217° |
| 2026-04-27 14:16 | 32.65901 | -10.46281 | 34956 ft | 435 kts | 217° |
| 2026-04-27 14:16 | 32.61122 | -10.50632 | 34961 ft | 435 kts | 217° |
| 2026-04-27 14:17 | 32.56313 | -10.55006 | 34960 ft | 435 kts | 217° |
| 2026-04-27 14:17 | 32.51504 | -10.59394 | 34956 ft | 435 kts | 217° |
| 2026-04-27 14:18 | 32.46699 | -10.63763 | 34956 ft | 436 kts | 217° |
| 2026-04-27 14:18 | 32.41881 | -10.68129 | 34957 ft | 436 kts | 217° |
| 2026-04-27 14:19 | 32.37080 | -10.72467 | 34958 ft | 436 kts | 217° |
| 2026-04-27 14:19 | 32.32247 | -10.76816 | 34957 ft | 436 kts | 217° |
| 2026-04-27 14:20 | 32.27412 | -10.81169 | 34960 ft | 436 kts | 217° |
| 2026-04-27 14:20 | 32.22586 | -10.85523 | 34958 ft | 437 kts | 217° |
| 2026-04-27 14:21 | 32.17754 | -10.89875 | 34954 ft | 437 kts | 217° |
| 2026-04-27 14:21 | 32.12915 | -10.94228 | 34956 ft | 438 kts | 217° |
| 2026-04-27 14:22 | 32.08062 | -10.98578 | 34959 ft | 438 kts | 217° |
| 2026-04-27 14:22 | 32.03230 | -11.02910 | 34961 ft | 439 kts | 217° |
| 2026-04-27 14:23 | 31.98370 | -11.07264 | 34964 ft | 439 kts | 217° |
| 2026-04-27 14:23 | 31.93501 | -11.11614 | 34969 ft | 439 kts | 217° |
| 2026-04-27 14:24 | 31.88629 | -11.15963 | 34972 ft | 439 kts | 217° |
| 2026-04-27 14:24 | 31.83756 | -11.20309 | 34968 ft | 439 kts | 217° |
| 2026-04-27 14:25 | 31.79703 | -11.23918 | 34975 ft | 440 kts | 217° |
| 2026-04-27 14:25 | 31.74811 | -11.28263 | 34973 ft | 440 kts | 217° |
| 2026-04-27 14:26 | 31.69933 | -11.32609 | 34968 ft | 440 kts | 217° |
| 2026-04-27 14:26 | 31.65048 | -11.36958 | 34972 ft | 440 kts | 217° |
| 2026-04-27 14:27 | 31.60168 | -11.41310 | 34974 ft | 441 kts | 218° |
| 2026-04-27 14:27 | 31.55316 | -11.45635 | 34977 ft | 441 kts | 217° |
| 2026-04-27 14:28 | 31.50419 | -11.49975 | 34982 ft | 441 kts | 217° |
| 2026-04-27 14:28 | 31.45519 | -11.54318 | 34987 ft | 441 kts | 217° |
| 2026-04-27 14:29 | 31.40614 | -11.58663 | 34985 ft | 442 kts | 218° |
| 2026-04-27 14:29 | 31.35711 | -11.63003 | 34981 ft | 442 kts | 218° |
| 2026-04-27 14:30 | 31.30799 | -11.67335 | 34989 ft | 442 kts | 217° |
| 2026-04-27 14:30 | 31.25911 | -11.71634 | 34984 ft | 442 kts | 218° |
| 2026-04-27 14:31 | 31.20997 | -11.75951 | 34986 ft | 442 kts | 217° |
| 2026-04-27 14:31 | 31.16056 | -11.80301 | 34986 ft | 442 kts | 218° |
| 2026-04-27 14:32 | 31.11173 | -11.84595 | 34996 ft | 442 kts | 218° |
| 2026-04-27 14:32 | 31.06256 | -11.88910 | 34985 ft | 442 kts | 218° |
| 2026-04-27 14:33 | 31.01327 | -11.93220 | 34985 ft | 442 kts | 218° |
| 2026-04-27 14:33 | 30.96411 | -11.97525 | 34986 ft | 442 kts | 218° |
| 2026-04-27 14:34 | 30.91521 | -12.01793 | 34990 ft | 442 kts | 218° |
| 2026-04-27 14:34 | 30.86591 | -12.06096 | 34994 ft | 442 kts | 218° |
| 2026-04-27 14:35 | 30.81665 | -12.10399 | 34994 ft | 442 kts | 218° |
| 2026-04-27 14:35 | 30.76737 | -12.14683 | 34992 ft | 442 kts | 218° |
| 2026-04-27 14:36 | 30.71808 | -12.18951 | 34564 ft | 441 kts | 218° |
| 2026-04-27 14:36 | 30.69347 | -12.21086 | 33958 ft | 442 kts | 218° |
| 2026-04-27 14:36 | 30.66876 | -12.23232 | 33211 ft | 445 kts | 218° |
| 2026-04-27 14:36 | 30.64387 | -12.25392 | 32440 ft | 448 kts | 218° |
| 2026-04-27 14:37 | 30.61878 | -12.27573 | 31625 ft | 452 kts | 218° |
| 2026-04-27 14:37 | 30.59384 | -12.29738 | 30835 ft | 456 kts | 218° |
| 2026-04-27 14:37 | 30.56831 | -12.31946 | 30053 ft | 459 kts | 218° |
| 2026-04-27 14:37 | 30.54258 | -12.34169 | 29160 ft | 462 kts | 218° |
| 2026-04-27 14:38 | 30.51667 | -12.36399 | 28277 ft | 464 kts | 218° |
| 2026-04-27 14:38 | 30.49069 | -12.38630 | 27408 ft | 466 kts | 218° |
| 2026-04-27 14:38 | 30.46453 | -12.40873 | 26528 ft | 468 kts | 218° |
| 2026-04-27 14:38 | 30.43835 | -12.43122 | 25642 ft | 469 kts | 217° |
| 2026-04-27 14:39 | 30.41209 | -12.45380 | 24776 ft | 470 kts | 217° |
| 2026-04-27 14:39 | 30.38580 | -12.47642 | 23909 ft | 471 kts | 217° |
| 2026-04-27 14:39 | 30.35942 | -12.49913 | 22913 ft | 472 kts | 217° |
| 2026-04-27 14:39 | 30.33304 | -12.52183 | 21828 ft | 473 kts | 217° |
| 2026-04-27 14:40 | 30.30659 | -12.54452 | 20738 ft | 473 kts | 217° |
| 2026-04-27 14:40 | 30.28018 | -12.56712 | 19797 ft | 470 kts | 217° |
| 2026-04-27 14:40 | 30.25406 | -12.58941 | 19035 ft | 464 kts | 217° |
| 2026-04-27 14:40 | 30.22826 | -12.61138 | 18306 ft | 457 kts | 217° |
| 2026-04-27 14:41 | 30.20312 | -12.63277 | 17474 ft | 451 kts | 217° |
| 2026-04-27 14:41 | 30.17801 | -12.65419 | 16638 ft | 446 kts | 217° |
| 2026-04-27 14:41 | 30.15308 | -12.67545 | 15797 ft | 441 kts | 217° |
| 2026-04-27 14:41 | 30.12855 | -12.69634 | 14972 ft | 436 kts | 217° |
| 2026-04-27 14:42 | 30.10423 | -12.71706 | 14185 ft | 432 kts | 217° |
| 2026-04-27 14:42 | 30.08017 | -12.73758 | 13387 ft | 428 kts | 217° |
| 2026-04-27 14:42 | 30.05641 | -12.75790 | 12601 ft | 423 kts | 217° |
| 2026-04-27 14:42 | 30.03300 | -12.77796 | 12150 ft | 413 kts | 217° |
| 2026-04-27 14:43 | 30.01042 | -12.79729 | 11981 ft | 395 kts | 217° |
| 2026-04-27 14:43 | 30.00800 | -12.79936 | 11980 ft | 393 kts | 217° |
| 2026-04-27 14:43 | 29.99548 | -12.81008 | 11987 ft | 388 kts | 217° |
| 2026-04-27 14:43 | 29.97394 | -12.82848 | 12006 ft | 384 kts | 217° |
| 2026-04-27 14:44 | 29.95250 | -12.84678 | 12008 ft | 383 kts | 217° |
| 2026-04-27 14:44 | 29.93110 | -12.86502 | 12007 ft | 383 kts | 217° |
| 2026-04-27 14:44 | 29.90969 | -12.88323 | 12009 ft | 383 kts | 217° |
| 2026-04-27 14:44 | 29.88826 | -12.90147 | 12008 ft | 383 kts | 217° |
| 2026-04-27 14:45 | 29.86711 | -12.91946 | 12012 ft | 383 kts | 217° |
| 2026-04-27 14:45 | 29.84569 | -12.93769 | 12010 ft | 383 kts | 217° |
| 2026-04-27 14:45 | 29.82429 | -12.95586 | 12011 ft | 383 kts | 217° |
| 2026-04-27 14:45 | 29.80282 | -12.97410 | 12010 ft | 383 kts | 217° |
| 2026-04-27 14:46 | 29.78135 | -12.99234 | 12012 ft | 383 kts | 217° |
| 2026-04-27 14:46 | 29.75988 | -13.01056 | 12010 ft | 383 kts | 217° |
| 2026-04-27 14:46 | 29.73842 | -13.02874 | 12011 ft | 383 kts | 217° |
| 2026-04-27 14:46 | 29.71697 | -13.04688 | 12011 ft | 383 kts | 217° |
| 2026-04-27 14:47 | 29.69547 | -13.06508 | 12011 ft | 383 kts | 217° |
| 2026-04-27 14:47 | 29.67418 | -13.08308 | 11554 ft | 378 kts | 217° |
| 2026-04-27 14:47 | 29.65304 | -13.10097 | 10940 ft | 375 kts | 217° |
| 2026-04-27 14:47 | 29.63212 | -13.11871 | 10350 ft | 372 kts | 216° |
| 2026-04-27 14:48 | 29.61135 | -13.13630 | 9766 ft | 369 kts | 216° |
| 2026-04-27 14:48 | 29.57120 | -13.17026 | 9108 ft | 346 kts | 217° |
| 2026-04-27 14:48 | 29.55222 | -13.18628 | 8987 ft | 332 kts | 217° |
| 2026-04-27 14:49 | 29.53401 | -13.20163 | 8857 ft | 318 kts | 217° |
| 2026-04-27 14:49 | 29.51650 | -13.21637 | 8732 ft | 306 kts | 217° |
| 2026-04-27 14:49 | 29.49968 | -13.23054 | 8582 ft | 293 kts | 217° |
| 2026-04-27 14:49 | 29.48334 | -13.24429 | 8297 ft | 289 kts | 217° |
| 2026-04-27 14:50 | 29.46725 | -13.25786 | 7954 ft | 287 kts | 218° |
| 2026-04-27 14:50 | 29.45117 | -13.27141 | 7594 ft | 286 kts | 218° |
| 2026-04-27 14:50 | 29.43513 | -13.28491 | 7242 ft | 285 kts | 218° |
| 2026-04-27 14:50 | 29.41914 | -13.29837 | 6909 ft | 285 kts | 219° |
| 2026-04-27 14:51 | 29.40318 | -13.31178 | 6561 ft | 284 kts | 218° |
| 2026-04-27 14:51 | 29.38725 | -13.32518 | 6211 ft | 283 kts | 219° |
| 2026-04-27 14:51 | 29.37145 | -13.33846 | 6007 ft | 281 kts | 219° |
| 2026-04-27 14:51 | 29.36094 | -13.34729 | 6017 ft | 283 kts | 218° |
| 2026-04-27 14:52 | 29.33963 | -13.36518 | 6021 ft | 284 kts | 219° |
| 2026-04-27 14:52 | 29.32370 | -13.37855 | 6018 ft | 284 kts | 218° |
| 2026-04-27 14:52 | 29.30779 | -13.39187 | 6017 ft | 284 kts | 218° |
| 2026-04-27 14:52 | 29.29197 | -13.40511 | 6018 ft | 284 kts | 218° |
| 2026-04-27 14:53 | 29.27598 | -13.41852 | 6013 ft | 285 kts | 218° |
| 2026-04-27 14:53 | 29.26001 | -13.43191 | 6020 ft | 285 kts | 218° |
| 2026-04-27 14:53 | 29.24400 | -13.44534 | 6021 ft | 289 kts | 218° |
| 2026-04-27 14:53 | 29.22683 | -13.45979 | 6028 ft | 324 kts | 218° |
| 2026-04-27 14:54 | 29.20791 | -13.47571 | 6024 ft | 352 kts | 218° |
| 2026-04-27 14:54 | 29.18751 | -13.49283 | 6012 ft | 373 kts | 218° |
| 2026-04-27 14:54 | 29.16608 | -13.51079 | 6024 ft | 385 kts | 218° |
| 2026-04-27 14:54 | 29.14502 | -13.52973 | 6024 ft | 386 kts | 221° |
| 2026-04-27 14:55 | 29.12453 | -13.54963 | 6027 ft | 387 kts | 223° |
| 2026-04-27 14:55 | 29.10435 | -13.57002 | 6026 ft | 387 kts | 223° |
| 2026-04-27 14:55 | 29.08430 | -13.59057 | 6023 ft | 386 kts | 224° |
| 2026-04-27 14:55 | 29.06443 | -13.61085 | 5532 ft | 381 kts | 223° |
| 2026-04-27 14:56 | 29.04455 | -13.63085 | 5091 ft | 382 kts | 223° |
| 2026-04-27 14:56 | 29.02447 | -13.65082 | 4938 ft | 383 kts | 223° |
| 2026-04-27 14:56 | 29.00427 | -13.67077 | 4957 ft | 383 kts | 222° |
| 2026-04-27 14:56 | 28.98397 | -13.69072 | 4956 ft | 384 kts | 222° |
| 2026-04-27 14:57 | 28.96387 | -13.71040 | 4962 ft | 384 kts | 222° |
| 2026-04-27 14:57 | 28.94368 | -13.73020 | 4951 ft | 383 kts | 223° |
| 2026-04-27 14:57 | 28.92347 | -13.75011 | 4954 ft | 383 kts | 223° |
| 2026-04-27 14:57 | 28.90334 | -13.76993 | 4957 ft | 383 kts | 223° |
| 2026-04-27 14:58 | 28.88318 | -13.78977 | 4952 ft | 383 kts | 223° |
| 2026-04-27 14:58 | 28.86310 | -13.80953 | 4954 ft | 382 kts | 223° |
| 2026-04-27 14:58 | 28.84292 | -13.82934 | 4950 ft | 381 kts | 223° |
| 2026-04-27 14:58 | 28.82277 | -13.84908 | 4956 ft | 383 kts | 222° |
| 2026-04-27 14:59 | 28.80254 | -13.86893 | 4951 ft | 384 kts | 223° |
| 2026-04-27 14:59 | 28.78220 | -13.88888 | 4952 ft | 385 kts | 222° |
| 2026-04-27 14:59 | 28.76220 | -13.90848 | 4951 ft | 384 kts | 222° |
| 2026-04-27 14:59 | 28.74198 | -13.92829 | 4949 ft | 384 kts | 223° |
| 2026-04-27 15:00 | 28.72171 | -13.94816 | 4950 ft | 384 kts | 223° |
| 2026-04-27 15:00 | 28.70149 | -13.96796 | 4951 ft | 383 kts | 223° |
| 2026-04-27 15:00 | 28.68130 | -13.98775 | 4952 ft | 383 kts | 222° |
| 2026-04-27 15:00 | 28.66113 | -14.00749 | 4952 ft | 382 kts | 223° |
| 2026-04-27 15:01 | 28.64094 | -14.02721 | 4953 ft | 383 kts | 223° |
| 2026-04-27 15:01 | 28.62071 | -14.04694 | 4955 ft | 382 kts | 222° |
| 2026-04-27 15:01 | 28.60052 | -14.06663 | 4954 ft | 382 kts | 222° |
| 2026-04-27 15:01 | 28.58035 | -14.08629 | 4951 ft | 382 kts | 222° |
| 2026-04-27 15:02 | 28.56015 | -14.10598 | 4956 ft | 382 kts | 222° |
| 2026-04-27 15:02 | 28.53995 | -14.12563 | 4959 ft | 382 kts | 222° |
| 2026-04-27 15:02 | 28.51954 | -14.14549 | 4990 ft | 387 kts | 223° |
| 2026-04-27 15:02 | 28.49930 | -14.16519 | 5363 ft | 384 kts | 223° |
| 2026-04-27 15:03 | 28.47890 | -14.18503 | 5471 ft | 383 kts | 222° |
| 2026-04-27 15:03 | 28.45892 | -14.20444 | 5100 ft | 374 kts | 223° |
| 2026-04-27 15:03 | 28.43920 | -14.22358 | 4929 ft | 374 kts | 223° |
| 2026-04-27 15:03 | 28.41939 | -14.24285 | 4951 ft | 376 kts | 222° |
| 2026-04-27 15:04 | 28.39953 | -14.26217 | 4958 ft | 376 kts | 223° |
| 2026-04-27 15:04 | 28.37970 | -14.28147 | 4954 ft | 376 kts | 222° |
| 2026-04-27 15:04 | 28.35982 | -14.30079 | 4962 ft | 375 kts | 223° |
| 2026-04-27 15:04 | 28.33989 | -14.32011 | 4956 ft | 376 kts | 222° |
| 2026-04-27 15:05 | 28.32030 | -14.33908 | 4956 ft | 375 kts | 223° |
| 2026-04-27 15:05 | 28.30046 | -14.35827 | 4954 ft | 375 kts | 222° |
| 2026-04-27 15:05 | 28.28064 | -14.37742 | 4960 ft | 375 kts | 223° |
| 2026-04-27 15:05 | 28.26074 | -14.39662 | 4957 ft | 375 kts | 222° |
| 2026-04-27 15:06 | 28.24088 | -14.41580 | 4961 ft | 375 kts | 222° |
| 2026-04-27 15:06 | 28.22097 | -14.43504 | 4959 ft | 375 kts | 222° |
| 2026-04-27 15:06 | 28.20112 | -14.45424 | 4954 ft | 375 kts | 222° |
| 2026-04-27 15:06 | 28.18126 | -14.47344 | 4957 ft | 376 kts | 222° |
| 2026-04-27 15:07 | 28.16133 | -14.49271 | 4957 ft | 376 kts | 222° |
| 2026-04-27 15:07 | 28.14142 | -14.51191 | 4958 ft | 375 kts | 222° |
| 2026-04-27 15:07 | 28.12156 | -14.53099 | 4954 ft | 375 kts | 222° |
| 2026-04-27 15:07 | 28.10162 | -14.55015 | 4959 ft | 376 kts | 222° |
| 2026-04-27 15:08 | 28.08168 | -14.56936 | 4957 ft | 376 kts | 222° |
| 2026-04-27 15:08 | 28.06171 | -14.58861 | 4960 ft | 376 kts | 222° |
| 2026-04-27 15:08 | 28.04181 | -14.60779 | 4965 ft | 376 kts | 222° |
| 2026-04-27 15:08 | 28.02207 | -14.62679 | 4960 ft | 377 kts | 222° |
| 2026-04-27 15:09 | 28.00215 | -14.64604 | 4963 ft | 377 kts | 224° |
| 2026-04-27 15:09 | 27.98376 | -14.66709 | 4960 ft | 375 kts | 228° |
| 2026-04-27 15:09 | 27.96577 | -14.68837 | 4966 ft | 375 kts | 228° |
| 2026-04-27 15:09 | 27.94772 | -14.70972 | 4961 ft | 375 kts | 228° |
| 2026-04-27 15:10 | 27.92967 | -14.73107 | 4959 ft | 373 kts | 228° |
| 2026-04-27 15:10 | 27.91227 | -14.75159 | 4956 ft | 350 kts | 228° |
| 2026-04-27 15:10 | 27.89592 | -14.77084 | 4959 ft | 329 kts | 229° |
| 2026-04-27 15:10 | 27.88053 | -14.78894 | 4962 ft | 310 kts | 229° |
| 2026-04-27 15:11 | 27.86603 | -14.80600 | 4961 ft | 292 kts | 229° |
| 2026-04-27 15:11 | 27.85232 | -14.82216 | 4963 ft | 282 kts | 229° |
| 2026-04-27 15:11 | 27.83885 | -14.83811 | 4961 ft | 280 kts | 229° |
| 2026-04-27 15:11 | 27.82538 | -14.85407 | 4964 ft | 280 kts | 229° |
| 2026-04-27 15:12 | 27.81192 | -14.86998 | 4964 ft | 281 kts | 229° |
| 2026-04-27 15:12 | 27.79840 | -14.88591 | 4967 ft | 281 kts | 229° |
| 2026-04-27 15:12 | 27.78488 | -14.90182 | 4963 ft | 281 kts | 229° |
| 2026-04-27 15:12 | 27.77297 | -14.91904 | 4943 ft | 276 kts | 245° |
| 2026-04-27 15:13 | 27.76767 | -14.93917 | 4738 ft | 262 kts | 270° |
| 2026-04-27 15:13 | 27.76770 | -14.95253 | 4657 ft | 253 kts | 276° |
| 2026-04-27 15:13 | 27.76819 | -14.97201 | 4520 ft | 244 kts | 275° |
| 2026-04-27 15:13 | 27.76860 | -14.99075 | 4361 ft | 235 kts | 275° |
| 2026-04-27 15:14 | 27.76917 | -15.01505 | 4009 ft | 231 kts | 276° |
| 2026-04-27 15:14 | 27.76946 | -15.02735 | 3956 ft | 233 kts | 276° |
| 2026-04-27 15:14 | 27.77005 | -15.05161 | 3959 ft | 234 kts | 276° |
| 2026-04-27 15:14 | 27.77034 | -15.06398 | 3957 ft | 233 kts | 275° |
| 2026-04-27 15:15 | 27.77074 | -15.08194 | 3944 ft | 222 kts | 275° |
| 2026-04-27 15:15 | 27.77108 | -15.09850 | 3842 ft | 207 kts | 276° |
| 2026-04-27 15:15 | 27.77141 | -15.11445 | 3664 ft | 199 kts | 275° |
| 2026-04-27 15:15 | 27.77175 | -15.12997 | 3375 ft | 197 kts | 276° |
| 2026-04-27 15:16 | 27.77212 | -15.14542 | 3051 ft | 197 kts | 276° |
| 2026-04-27 15:16 | 27.77249 | -15.16091 | 2738 ft | 197 kts | 276° |
| 2026-04-27 15:16 | 27.77284 | -15.17621 | 2512 ft | 195 kts | 276° |
| 2026-04-27 15:16 | 27.77318 | -15.19156 | 2451 ft | 196 kts | 276° |
| 2026-04-27 15:17 | 27.77353 | -15.20695 | 2476 ft | 196 kts | 276° |
| 2026-04-27 15:17 | 27.77387 | -15.22231 | 2456 ft | 196 kts | 276° |
| 2026-04-27 15:17 | 27.77419 | -15.23771 | 2447 ft | 196 kts | 276° |
| 2026-04-27 15:17 | 27.77452 | -15.25311 | 2448 ft | 196 kts | 276° |
| 2026-04-27 15:18 | 27.77486 | -15.26847 | 2450 ft | 195 kts | 275° |
| 2026-04-27 15:18 | 27.77517 | -15.28360 | 2447 ft | 196 kts | 276° |
| 2026-04-27 15:18 | 27.77551 | -15.29907 | 2450 ft | 198 kts | 276° |
| 2026-04-27 15:18 | 27.77585 | -15.31458 | 2453 ft | 196 kts | 275° |
| 2026-04-27 15:19 | 27.77617 | -15.32998 | 2447 ft | 196 kts | 276° |
| 2026-04-27 15:19 | 27.77649 | -15.34542 | 2450 ft | 197 kts | 276° |
| 2026-04-27 15:19 | 27.77681 | -15.36090 | 2457 ft | 197 kts | 275° |
| 2026-04-27 15:19 | 27.77712 | -15.37629 | 2375 ft | 193 kts | 275° |
| 2026-04-27 15:20 | 27.77742 | -15.39143 | 1982 ft | 192 kts | 275° |
| 2026-04-27 15:20 | 27.77773 | -15.40655 | 1951 ft | 195 kts | 276° |
| 2026-04-27 15:20 | 27.77857 | -15.42180 | 1947 ft | 194 kts | 286° |
| 2026-04-27 15:20 | 27.78469 | -15.43434 | 1965 ft | 171 kts | 317° |
| 2026-04-27 15:21 | 27.79434 | -15.44103 | 1952 ft | 159 kts | 343° |
| 2026-04-27 15:21 | 27.80510 | -15.44193 | 1948 ft | 154 kts | 8° |
| 2026-04-27 15:21 | 27.81516 | -15.43812 | 1956 ft | 155 kts | 19° |
| 2026-04-27 15:21 | 27.82518 | -15.43369 | 1934 ft | 154 kts | 19° |
| 2026-04-27 15:22 | 27.83527 | -15.42925 | 1798 ft | 157 kts | 19° |
| 2026-04-27 15:22 | 27.84541 | -15.42478 | 1629 ft | 155 kts | 19° |
| 2026-04-27 15:22 | 27.85542 | -15.42036 | 1424 ft | 155 kts | 20° |
| 2026-04-27 15:22 | 27.86524 | -15.41602 | 1237 ft | 143 kts | 20° |
| 2026-04-27 15:23 | 27.87426 | -15.41204 | 1056 ft | 138 kts | 20° |
| 2026-04-27 15:23 | 27.88311 | -15.40814 | 877 ft | 137 kts | 19° |
| 2026-04-27 15:23 | 27.89187 | -15.40427 | 693 ft | 134 kts | 20° |
| 2026-04-27 15:23 | 27.90059 | -15.40033 | 536 ft | 133 kts | 20° |
| 2026-04-27 15:24 | 27.90920 | -15.39654 | 356 ft | 133 kts | 19° |
| 2026-04-27 15:24 | 27.91789 | -15.39276 | 156 ft | 134 kts | 20° |
| 2026-04-27 15:24 | 27.92631 | -15.38904 | 69 ft | 116 kts | 20° |
| 2026-04-27 15:24 | 27.93052 | -15.38725 | 58 ft | 21 kts | 16° |
| 2026-04-27 15:25 | 27.93188 | -15.38723 | 66 ft | 19 kts | 350° |
| 2026-04-27 15:25 | 27.93301 | -15.38743 | 72 ft | 14 kts | 352° |
| 2026-04-27 15:25 | 27.93385 | -15.38762 | 76 ft | 11 kts | 338° |